Sheila Moran — WYN6274 — position and weather

sailwx.info

Track history (hours):
 
Tides and Currents Weather Stations Pressure Air Temp Water Temp Dewpoint Dewpoint Depression Visibility Wind Speed Wind Dir Waves Ship Positions

Sheila Moran

Owner: MORAN TOWING CORPORATION, New Canaan, CT. More information available from US FCC via Universal Licensing System and Coast Guard Vessel Documentation Center.

Last reported at 2017-Oct-14 18:38 UTC. Time now 2017-Oct-17 04:29 UTC.
Position N 36°38' W 075°49'.

Length 193 m; draft 6.1 m.

Type: Towing. MMSI: 366939810.

Date/timePositionNaut miles runAvg speedWind from/ knotsBaromVisibWave heightAir tempDewpointWater temp
2017-Oct-14 18:38N 36°38' W 075°49'210.6
2017-Oct-14 18:28N 36°40' W 075°49'610.6
2017-Oct-14 17:56N 36°45' W 075°50'2310.4
2017-Oct-14 15:46N 37°07' W 075°41'410.3
2017-Oct-14 15:20N 37°11' W 075°39'154 9.1
2017-Oct-13 22:27N 39°27' W 074°09'5 9.3
2017-Oct-13 21:57N 39°32' W 074°06'4 9.1
2017-Oct-13 21:30N 39°35' W 074°04'4 9.0
2017-Oct-13 21:00N 39°40' W 074°04'5 9.0
2017-Oct-13 20:29N 39°44' W 074°03'5 9.1
2017-Oct-13 19:58N 39°49' W 074°02'29 9.1
2017-Oct-13 16:50N 40°17' W 073°55'4 9.5
2017-Oct-13 16:22N 40°22' W 073°55'4 9.6
2017-Oct-13 15:59N 40°25' W 073°54'3 7.3
2017-Oct-13 15:30N 40°29' W 073°55'4 7.8
2017-Oct-13 15:00N 40°31' W 073°59'4 8.3
2017-Oct-13 14:30N 40°34' W 074°02'510.8
2017-Oct-13 14:00N 40°40' W 074°03'612.8
2017-Oct-13 13:31N 40°46' W 074°01'4 8.6
2017-Oct-13 12:59N 40°50' W 073°58'0 0.1
2017-Oct-13 12:29N 40°50' W 073°58'0 0.0
2017-Oct-13 11:59N 40°50' W 073°58'0 0.1
2017-Oct-13 11:29N 40°50' W 073°58'0 0.0
2017-Oct-13 10:59N 40°50' W 073°58'0 0.0
2017-Oct-13 10:29N 40°50' W 073°58'0 0.1
2017-Oct-13 09:59N 40°50' W 073°58'0 0.3
2017-Oct-13 09:29N 40°50' W 073°58'0 0.0
2017-Oct-13 08:59N 40°50' W 073°58'0 0.0
2017-Oct-13 08:29N 40°50' W 073°58'0 0.0
2017-Oct-13 07:59N 40°50' W 073°58'0 0.0
2017-Oct-13 07:29N 40°50' W 073°58'0 0.1
2017-Oct-13 06:59N 40°50' W 073°58'3 5.7
2017-Oct-13 06:30N 40°52' W 073°56'4 7.0
2017-Oct-13 05:59N 40°56' W 073°54'0 0.0
2017-Oct-13 05:26N 40°56' W 073°54'0 0.0
2017-Oct-13 04:56N 40°56' W 073°54'0 0.0
2017-Oct-13 04:26N 40°56' W 073°54'0 0.0
2017-Oct-13 03:20N 40°56' W 073°54'0 0.0
2017-Oct-13 02:29N 40°56' W 073°54'0 0.0
2017-Oct-12 22:26N 40°56' W 073°54'0 0.0
2017-Oct-12 21:59N 40°56' W 073°54'0 0.0
2017-Oct-12 21:05N 40°56' W 073°54'0 0.1
2017-Oct-12 20:59N 40°56' W 073°54'0 0.0
2017-Oct-12 20:11N 40°56' W 073°54'0 0.0
2017-Oct-12 19:59N 40°56' W 073°54'0 0.0
2017-Oct-12 18:02N 40°56' W 073°54'0 0.0
2017-Oct-12 17:41N 40°56' W 073°54'0 0.0
2017-Oct-12 17:02N 40°56' W 073°54'0 0.1
2017-Oct-12 16:56N 40°56' W 073°54'0 0.0
2017-Oct-12 04:44N 40°56' W 073°54'0 0.0
2017-Oct-12 03:44N 40°56' W 073°54'0 0.0
2017-Oct-12 03:26N 40°56' W 073°54'0 0.0
2017-Oct-12 02:26N 40°56' W 073°54'0 0.0
2017-Oct-12 01:50N 40°56' W 073°54'0 0.0
2017-Oct-12 01:26N 40°56' W 073°54'0 0.0
2017-Oct-12 00:56N 40°56' W 073°54'0 0.0
2017-Oct-12 00:26N 40°56' W 073°54'0 0.0
2017-Oct-11 23:59N 40°56' W 073°54'0 0.0
2017-Oct-11 23:29N 40°56' W 073°54'0 0.0
2017-Oct-11 22:53N 40°56' W 073°54'0 0.0
2017-Oct-11 22:26N 40°56' W 073°54'0 0.0
2017-Oct-11 18:58N 40°56' W 073°54'0 0.8
2017-Oct-11 18:29N 40°56' W 073°54'0 0.7
2017-Oct-11 17:58N 40°56' W 073°54'15 0.8
2017-Oct-11 00:00N 40°42' W 074°02'5 9.4
2017-Oct-10 23:30N 40°39' W 074°07'0 0.2
2017-Oct-10 22:46N 40°39' W 074°07'0 0.0
2017-Oct-10 22:25N 40°39' W 074°07'0 0.0
2017-Oct-10 21:58N 40°39' W 074°07'0 0.0
2017-Oct-10 21:28N 40°39' W 074°07'0 0.0
2017-Oct-10 21:00N 40°39' W 074°07'0 0.0
2017-Oct-10 20:30N 40°39' W 074°07'0 0.0
2017-Oct-10 20:00N 40°39' W 074°07'0 0.0
2017-Oct-10 19:30N 40°39' W 074°07'0 0.0
2017-Oct-10 19:00N 40°39' W 074°07'0 0.0
2017-Oct-10 18:30N 40°39' W 074°07'1 2.8
2017-Oct-10 18:00N 40°39' W 074°05'611.5
2017-Oct-10 17:30N 40°44' W 074°01'611.1
2017-Oct-10 17:00N 40°49' W 073°58'611.1
2017-Oct-10 16:29N 40°55' W 073°55'1 0.9
2017-Oct-10 15:05N 40°56' W 073°54'0 0.0
2017-Oct-10 12:44N 40°56' W 073°54'0 0.0
2017-Oct-10 12:17N 40°56' W 073°54'0 0.0
2017-Oct-10 11:47N 40°56' W 073°54'0 0.0
2017-Oct-10 11:29N 40°56' W 073°54'0 0.0
2017-Oct-10 10:59N 40°56' W 073°54'0 0.0
2017-Oct-10 10:26N 40°56' W 073°54'0 0.0
2017-Oct-10 09:56N 40°56' W 073°54'0 0.0
2017-Oct-10 09:20N 40°56' W 073°54'0 0.0
2017-Oct-10 08:56N 40°56' W 073°54'0 0.0
2017-Oct-10 08:26N 40°56' W 073°54'0 0.0
2017-Oct-10 07:56N 40°56' W 073°54'0 0.0
2017-Oct-10 07:26N 40°56' W 073°54'0 0.0
2017-Oct-10 06:56N 40°56' W 073°54'0 0.0
2017-Oct-10 04:56N 40°56' W 073°54'0 0.0
2017-Oct-10 03:56N 40°56' W 073°54'0 0.0
2017-Oct-10 00:20N 40°56' W 073°54'0 0.0
2017-Oct-09 19:41N 40°56' W 073°54'0 0.0
2017-Oct-09 19:18N 40°56' W 073°54'0 0.0
2017-Oct-09 19:00N 40°56' W 073°54'0 0.0
2017-Oct-09 18:30N 40°56' W 073°54'1 1.3
2017-Oct-09 18:00N 40°56' W 073°55'0 0.0
2017-Oct-09 17:29N 40°56' W 073°55'0 0.0
2017-Oct-09 17:00N 40°56' W 073°55'0 0.0
2017-Oct-09 16:26N 40°56' W 073°55'0 0.0
2017-Oct-09 16:00N 40°56' W 073°55'0 0.0
2017-Oct-09 15:30N 40°56' W 073°55'0 0.0
2017-Oct-09 15:00N 40°56' W 073°55'0 0.0
2017-Oct-09 14:30N 40°56' W 073°55'0 0.0
2017-Oct-09 14:00N 40°56' W 073°55'0 0.0
2017-Oct-09 13:29N 40°56' W 073°55'0 0.3
2017-Oct-09 13:00N 40°56' W 073°55'0 0.1
2017-Oct-09 12:30N 40°56' W 073°55'0 0.0
2017-Oct-09 12:00N 40°56' W 073°55'0 0.0
2017-Oct-09 11:30N 40°56' W 073°55'0 0.0
2017-Oct-09 10:59N 40°56' W 073°55'0 0.0
2017-Oct-09 10:29N 40°56' W 073°55'0 0.0
2017-Oct-09 10:00N 40°56' W 073°55'0 0.0
2017-Oct-09 09:29N 40°56' W 073°55'0 0.0
2017-Oct-09 09:00N 40°56' W 073°55'0 0.0
2017-Oct-09 08:31N 40°56' W 073°55'0 0.0
2017-Oct-09 08:00N 40°56' W 073°55'0 0.0
2017-Oct-09 07:30N 40°56' W 073°55'0 0.2
2017-Oct-09 06:59N 40°56' W 073°55'0 0.1
2017-Oct-09 06:30N 40°56' W 073°55'0 0.0
2017-Oct-09 06:00N 40°56' W 073°55'0 0.0
2017-Oct-09 05:24N 40°56' W 073°55'0 0.0
2017-Oct-09 05:00N 40°56' W 073°55'0 0.0
2017-Oct-09 04:30N 40°56' W 073°55'0 0.0
2017-Oct-09 03:59N 40°56' W 073°55'0 0.0
2017-Oct-09 03:30N 40°56' W 073°55'0 0.0
2017-Oct-09 03:00N 40°56' W 073°55'0 0.0
2017-Oct-09 02:30N 40°56' W 073°55'0 0.0
2017-Oct-09 01:52N 40°56' W 073°55'0 0.2
2017-Oct-09 01:19N 40°56' W 073°55'0 0.1
2017-Oct-09 01:00N 40°56' W 073°55'0 0.1
2017-Oct-09 00:29N 40°56' W 073°55'0 0.0
2017-Oct-09 00:00N 40°56' W 073°55'0 0.0
2017-Oct-08 23:30N 40°56' W 073°55'0 0.0
2017-Oct-08 23:00N 40°56' W 073°55'0 0.0
2017-Oct-08 22:30N 40°56' W 073°55'0 0.0
2017-Oct-08 22:00N 40°56' W 073°55'0 0.0
2017-Oct-08 21:30N 40°56' W 073°55'0 0.0
2017-Oct-08 21:00N 40°56' W 073°55'0 0.0
2017-Oct-08 20:30N 40°56' W 073°55'0 0.0
2017-Oct-08 20:00N 40°56' W 073°55'0 0.0
2017-Oct-08 19:30N 40°56' W 073°55'0 0.0
2017-Oct-08 19:00N 40°56' W 073°55'0 0.3
2017-Oct-08 18:30N 40°56' W 073°55'0 0.0
2017-Oct-08 18:00N 40°56' W 073°55'0 0.0
2017-Oct-08 17:30N 40°56' W 073°55'0 0.0
2017-Oct-08 17:00N 40°56' W 073°55'0 0.0
2017-Oct-08 16:30N 40°56' W 073°55'0 0.0
2017-Oct-08 16:00N 40°56' W 073°55'0 0.0
2017-Oct-08 15:30N 40°56' W 073°55'0 0.0
2017-Oct-08 15:00N 40°56' W 073°55'0 0.0
2017-Oct-08 14:30N 40°56' W 073°55'0 0.0
2017-Oct-08 14:00N 40°56' W 073°55'0 0.0
2017-Oct-08 13:30N 40°56' W 073°55'0 0.0
2017-Oct-08 12:59N 40°56' W 073°55'0 0.0
2017-Oct-08 12:28N 40°56' W 073°55'0 0.2
2017-Oct-08 12:00N 40°56' W 073°55'0 0.1
2017-Oct-08 11:30N 40°56' W 073°55'0 0.1
2017-Oct-08 10:58N 40°56' W 073°55'0 0.0
2017-Oct-08 10:30N 40°56' W 073°55'0 0.0
2017-Oct-08 10:00N 40°56' W 073°55'0 0.0
2017-Oct-08 09:30N 40°56' W 073°55'0 0.0
2017-Oct-08 09:00N 40°56' W 073°55'0 0.0
2017-Oct-08 08:31N 40°56' W 073°55'0 0.0
2017-Oct-08 08:00N 40°56' W 073°55'0 0.0
2017-Oct-08 07:30N 40°56' W 073°55'0 0.1
2017-Oct-08 07:01N 40°56' W 073°55'0 0.2
2017-Oct-08 06:27N 40°56' W 073°55'0 0.1
2017-Oct-08 05:59N 40°56' W 073°55'0 0.0
2017-Oct-08 05:30N 40°56' W 073°55'0 0.0
2017-Oct-08 04:59N 40°56' W 073°55'0 0.0
2017-Oct-08 04:30N 40°56' W 073°55'0 0.0
2017-Oct-08 03:57N 40°56' W 073°55'0 0.0
2017-Oct-08 03:30N 40°56' W 073°55'0 0.0
2017-Oct-08 03:01N 40°56' W 073°55'0 0.0
2017-Oct-08 02:30N 40°56' W 073°55'0 0.0
2017-Oct-08 02:00N 40°56' W 073°55'0 0.0
2017-Oct-08 01:29N 40°56' W 073°55'0 0.0
2017-Oct-08 00:59N 40°56' W 073°55'0 0.0
2017-Oct-08 00:29N 40°56' W 073°55'0 0.3
2017-Oct-08 00:00N 40°56' W 073°55'0 0.1
2017-Oct-07 23:28N 40°56' W 073°55'0 0.0
2017-Oct-07 23:00N 40°56' W 073°55'0 0.0
2017-Oct-07 22:30N 40°56' W 073°55'0 0.0
2017-Oct-07 22:00N 40°56' W 073°55'0 0.0
2017-Oct-07 21:30N 40°56' W 073°55'0 0.0
2017-Oct-07 21:00N 40°56' W 073°55'0 0.0
2017-Oct-07 20:30N 40°56' W 073°55'0 0.0
2017-Oct-07 20:00N 40°56' W 073°55'0 0.0
2017-Oct-07 19:29N 40°56' W 073°55'0 0.0
2017-Oct-07 18:59N 40°56' W 073°55'0 0.0
2017-Oct-07 18:30N 40°56' W 073°55'0 0.1
2017-Oct-07 17:58N 40°56' W 073°55'0 0.3
2017-Oct-07 17:19N 40°56' W 073°55'0 0.1
2017-Oct-07 16:58N 40°56' W 073°55'0 0.0
2017-Oct-07 16:28N 40°56' W 073°55'0 0.7
2017-Oct-07 16:00N 40°56' W 073°54'0 0.6
2017-Oct-07 15:25N 40°56' W 073°55'0 0.0
2017-Oct-07 14:56N 40°56' W 073°55'0 0.0
2017-Oct-07 13:56N 40°56' W 073°55'0 0.0
2017-Oct-07 12:46N 40°56' W 073°55'0 0.1
2017-Oct-07 11:50N 40°56' W 073°55'0 0.4
2017-Oct-07 11:26N 40°56' W 073°55'0 0.1
2017-Oct-07 10:59N 40°56' W 073°55'0 0.0
2017-Oct-07 10:14N 40°56' W 073°55'0 0.0
2017-Oct-07 09:59N 40°56' W 073°55'0 0.0
2017-Oct-07 09:28N 40°56' W 073°55'0 0.0
2017-Oct-07 08:59N 40°56' W 073°55'0 0.0
2017-Oct-07 08:28N 40°56' W 073°55'0 0.0
2017-Oct-07 07:55N 40°56' W 073°55'0 0.0
2017-Oct-07 07:29N 40°56' W 073°55'0 0.0
2017-Oct-07 06:58N 40°56' W 073°55'0 0.0
2017-Oct-07 05:49N 40°56' W 073°55'0 0.3
2017-Oct-07 05:13N 40°56' W 073°55'0 0.1
2017-Oct-07 04:52N 40°56' W 073°55'0 0.1
2017-Oct-07 04:28N 40°56' W 073°55'0 0.0
2017-Oct-07 03:58N 40°56' W 073°55'0 0.0
2017-Oct-07 03:29N 40°56' W 073°55'0 0.0
2017-Oct-07 00:46N 40°56' W 073°55'0 0.1
2017-Oct-06 23:40N 40°56' W 073°55'0 0.4
2017-Oct-06 23:22N 40°56' W 073°55'0 0.0
2017-Oct-06 22:19N 40°56' W 073°55'0 0.0
2017-Oct-06 21:55N 40°56' W 073°55'0 0.0
2017-Oct-06 21:28N 40°56' W 073°55'0 0.0
2017-Oct-06 20:58N 40°56' W 073°55'0 0.0
2017-Oct-06 20:28N 40°56' W 073°55'0 0.0
2017-Oct-06 19:49N 40°56' W 073°55'0 0.0
2017-Oct-06 19:25N 40°56' W 073°55'0 0.0
2017-Oct-06 18:52N 40°56' W 073°55'0 0.0
2017-Oct-06 18:29N 40°56' W 073°55'0 0.2
2017-Oct-06 18:00N 40°56' W 073°55'0 0.2
2017-Oct-06 17:30N 40°56' W 073°55'1 1.0
2017-Oct-06 17:00N 40°56' W 073°54'0 0.3
2017-Oct-06 16:30N 40°56' W 073°55'1 0.9
2017-Oct-06 15:57N 40°56' W 073°55'0 0.1
2017-Oct-06 14:21N 40°56' W 073°55'1 3.9
2017-Oct-06 14:00N 40°55' W 073°55'510.3
2017-Oct-06 13:30N 40°50' W 073°58'510.1
2017-Oct-06 13:01N 40°46' W 074°01'510.3
2017-Oct-06 12:31N 40°41' W 074°02'5 9.6
2017-Oct-06 12:00N 40°36' W 074°02'5 9.4
2017-Oct-06 11:30N 40°31' W 074°00'5 9.5
2017-Oct-06 11:00N 40°29' W 073°55'3 6.9
2017-Oct-06 10:30N 40°25' W 073°54'1 2.0
2017-Oct-06 10:00N 40°24' W 073°55'2 5.0
2017-Oct-06 09:30N 40°22' W 073°55'3 6.4
2017-Oct-06 09:00N 40°19' W 073°55'3 6.3
2017-Oct-06 08:30N 40°16' W 073°55'12 6.1
2017-Oct-06 06:31N 40°04' W 073°58'1 6.0
2017-Oct-06 06:25N 40°03' W 073°58'3 6.0
2017-Oct-06 05:59N 40°01' W 073°58'3 5.9
2017-Oct-06 05:30N 39°58' W 073°57'3 5.8
2017-Oct-06 05:00N 39°55' W 073°58'3 5.9
2017-Oct-06 04:30N 39°52' W 073°58'3 5.9
2017-Oct-06 04:00N 39°49' W 073°58'3 5.9
2017-Oct-06 03:31N 39°46' W 073°58'3 5.8
2017-Oct-06 03:00N 39°43' W 073°60'3 5.8
2017-Oct-06 02:30N 39°41' W 074°01'3 6.0
2017-Oct-06 02:00N 39°38' W 074°02'3 5.9
2017-Oct-06 01:30N 39°35' W 074°04'3 6.0
2017-Oct-06 01:00N 39°32' W 074°05'3 6.1
2017-Oct-06 00:30N 39°30' W 074°07'3 6.2
2017-Oct-06 00:00N 39°27' W 074°10'3 6.3
2017-Oct-05 23:30N 39°24' W 074°12'3 6.3
2017-Oct-05 23:00N 39°22' W 074°14'3 6.2
2017-Oct-05 22:30N 39°20' W 074°17'4 6.2
2017-Oct-05 21:53N 39°17' W 074°21'2 6.1
2017-Oct-05 21:29N 39°15' W 074°23'4 6.2
2017-Oct-05 20:54N 39°12' W 074°26'3 6.1
2017-Oct-05 20:27N 39°10' W 074°28'3 6.0
2017-Oct-05 20:00N 39°08' W 074°30'3 6.0
2017-Oct-05 19:30N 39°06' W 074°33'3 6.0
2017-Oct-05 18:59N 39°04' W 074°35'3 6.0
2017-Oct-05 18:30N 39°02' W 074°38'3 6.1
2017-Oct-05 17:57N 38°59' W 074°41'3 6.2
2017-Oct-05 17:30N 38°57' W 074°43'3 6.2
2017-Oct-05 17:00N 38°54' W 074°45'9 5.9
2017-Oct-05 15:30N 38°46' W 074°45'3 6.0
2017-Oct-05 15:00N 38°43' W 074°43'3 5.9
2017-Oct-05 14:30N 38°40' W 074°42'3 6.1
2017-Oct-05 14:00N 38°38' W 074°40'3 6.0
2017-Oct-05 13:30N 38°35' W 074°38'3 5.5
2017-Oct-05 13:00N 38°33' W 074°36'3 5.3
2017-Oct-05 12:30N 38°30' W 074°36'3 5.4
2017-Oct-05 12:00N 38°28' W 074°38'3 6.2
2017-Oct-05 11:30N 38°25' W 074°40'3 6.3
2017-Oct-05 11:00N 38°22' W 074°42'3 6.6
2017-Oct-05 10:30N 38°19' W 074°44'3 6.8
2017-Oct-05 10:00N 38°16' W 074°46'3 6.8
2017-Oct-05 09:30N 38°14' W 074°48'3 6.6
2017-Oct-05 09:00N 38°11' W 074°50'3 6.5
2017-Oct-05 08:30N 38°08' W 074°52'3 6.4
2017-Oct-05 08:00N 38°05' W 074°54'3 6.5
2017-Oct-05 07:30N 38°02' W 074°56'3 6.2
2017-Oct-05 07:00N 37°59' W 074°58'3 6.3
2017-Oct-05 06:30N 37°57' W 074°59'3 6.0
2017-Oct-05 06:00N 37°54' W 075°01'3 6.0
2017-Oct-05 05:30N 37°51' W 075°03'3 6.0
2017-Oct-05 05:00N 37°48' W 075°04'3 5.9
2017-Oct-05 04:29N 37°46' W 075°06'3 5.8
2017-Oct-05 03:58N 37°43' W 075°08'3 6.1
2017-Oct-05 03:29N 37°40' W 075°10'3 6.3
2017-Oct-05 03:00N 37°38' W 075°11'3 6.2
2017-Oct-05 02:30N 37°35' W 075°13'4 7.3
2017-Oct-05 02:00N 37°32' W 075°15'4 7.1
2017-Oct-05 01:30N 37°28' W 075°17'4 7.0
2017-Oct-05 01:00N 37°25' W 075°17'4 7.0
2017-Oct-05 00:30N 37°21' W 075°18'3 7.1
2017-Oct-05 00:00N 37°18' W 075°18'4 7.3
2017-Oct-04 23:30N 37°14' W 075°19'4 7.5
2017-Oct-04 22:59N 37°10' W 075°18'3 7.3
2017-Oct-04 22:30N 37°07' W 075°18'4 7.0
2017-Oct-04 22:00N 37°03' W 075°18'  
Track history (hours):
 
Tides and Currents Weather Stations Pressure Air Temp Water Temp Dewpoint Dewpoint Depression Visibility Wind Speed Wind Dir Waves Ship Positions

Sheila Moran

Owner: MORAN TOWING CORPORATION, New Canaan, CT. More information available from US FCC via Universal Licensing System and Coast Guard Vessel Documentation Center.

Last reported at 2017-Oct-14 18:38 UTC. Time now 2017-Oct-17 04:29 UTC.
Position N 36°38' W 075°49'.

Length 193 m; draft 6.1 m.

Type: Towing. MMSI: 366939810.

Date/timePositionNaut miles runAvg speedWind from/ knotsBaromVisibWave heightAir tempDewpointWater temp
2017-Oct-14 18:38N 36°38' W 075°49'210.6
2017-Oct-14 18:28N 36°40' W 075°49'610.6
2017-Oct-14 17:56N 36°45' W 075°50'2310.4
2017-Oct-14 15:46N 37°07' W 075°41'410.3
2017-Oct-14 15:20N 37°11' W 075°39'154 9.1
2017-Oct-13 22:27N 39°27' W 074°09'5 9.3
2017-Oct-13 21:57N 39°32' W 074°06'4 9.1
2017-Oct-13 21:30N 39°35' W 074°04'4 9.0
2017-Oct-13 21:00N 39°40' W 074°04'5 9.0
2017-Oct-13 20:29N 39°44' W 074°03'5 9.1
2017-Oct-13 19:58N 39°49' W 074°02'29 9.1
2017-Oct-13 16:50N 40°17' W 073°55'4 9.5
2017-Oct-13 16:22N 40°22' W 073°55'4 9.6
2017-Oct-13 15:59N 40°25' W 073°54'3 7.3
2017-Oct-13 15:30N 40°29' W 073°55'4 7.8
2017-Oct-13 15:00N 40°31' W 073°59'4 8.3
2017-Oct-13 14:30N 40°34' W 074°02'510.8
2017-Oct-13 14:00N 40°40' W 074°03'612.8
2017-Oct-13 13:31N 40°46' W 074°01'4 8.6
2017-Oct-13 12:59N 40°50' W 073°58'0 0.1
2017-Oct-13 12:29N 40°50' W 073°58'0 0.0
2017-Oct-13 11:59N 40°50' W 073°58'0 0.1
2017-Oct-13 11:29N 40°50' W 073°58'0 0.0
2017-Oct-13 10:59N 40°50' W 073°58'0 0.0
2017-Oct-13 10:29N 40°50' W 073°58'0 0.1
2017-Oct-13 09:59N 40°50' W 073°58'0 0.3
2017-Oct-13 09:29N 40°50' W 073°58'0 0.0
2017-Oct-13 08:59N 40°50' W 073°58'0 0.0
2017-Oct-13 08:29N 40°50' W 073°58'0 0.0
2017-Oct-13 07:59N 40°50' W 073°58'0 0.0
2017-Oct-13 07:29N 40°50' W 073°58'0 0.1
2017-Oct-13 06:59N 40°50' W 073°58'3 5.7
2017-Oct-13 06:30N 40°52' W 073°56'4 7.0
2017-Oct-13 05:59N 40°56' W 073°54'0 0.0
2017-Oct-13 05:26N 40°56' W 073°54'0 0.0
2017-Oct-13 04:56N 40°56' W 073°54'0 0.0
2017-Oct-13 04:26N 40°56' W 073°54'0 0.0
2017-Oct-13 03:20N 40°56' W 073°54'0 0.0
2017-Oct-13 02:29N 40°56' W 073°54'0 0.0
2017-Oct-12 22:26N 40°56' W 073°54'0 0.0
2017-Oct-12 21:59N 40°56' W 073°54'0 0.0
2017-Oct-12 21:05N 40°56' W 073°54'0 0.1
2017-Oct-12 20:59N 40°56' W 073°54'0 0.0
2017-Oct-12 20:11N 40°56' W 073°54'0 0.0
2017-Oct-12 19:59N 40°56' W 073°54'0 0.0
2017-Oct-12 18:02N 40°56' W 073°54'0 0.0
2017-Oct-12 17:41N 40°56' W 073°54'0 0.0
2017-Oct-12 17:02N 40°56' W 073°54'0 0.1
2017-Oct-12 16:56N 40°56' W 073°54'0 0.0
2017-Oct-12 04:44N 40°56' W 073°54'0 0.0
2017-Oct-12 03:44N 40°56' W 073°54'0 0.0
2017-Oct-12 03:26N 40°56' W 073°54'0 0.0
2017-Oct-12 02:26N 40°56' W 073°54'0 0.0
2017-Oct-12 01:50N 40°56' W 073°54'0 0.0
2017-Oct-12 01:26N 40°56' W 073°54'0 0.0
2017-Oct-12 00:56N 40°56' W 073°54'0 0.0
2017-Oct-12 00:26N 40°56' W 073°54'0 0.0
2017-Oct-11 23:59N 40°56' W 073°54'0 0.0
2017-Oct-11 23:29N 40°56' W 073°54'0 0.0
2017-Oct-11 22:53N 40°56' W 073°54'0 0.0
2017-Oct-11 22:26N 40°56' W 073°54'0 0.0
2017-Oct-11 18:58N 40°56' W 073°54'0 0.8
2017-Oct-11 18:29N 40°56' W 073°54'0 0.7
2017-Oct-11 17:58N 40°56' W 073°54'15 0.8
2017-Oct-11 00:00N 40°42' W 074°02'5 9.4
2017-Oct-10 23:30N 40°39' W 074°07'0 0.2
2017-Oct-10 22:46N 40°39' W 074°07'0 0.0
2017-Oct-10 22:25N 40°39' W 074°07'0 0.0
2017-Oct-10 21:58N 40°39' W 074°07'0 0.0
2017-Oct-10 21:28N 40°39' W 074°07'0 0.0
2017-Oct-10 21:00N 40°39' W 074°07'0 0.0
2017-Oct-10 20:30N 40°39' W 074°07'0 0.0
2017-Oct-10 20:00N 40°39' W 074°07'0 0.0
2017-Oct-10 19:30N 40°39' W 074°07'0 0.0
2017-Oct-10 19:00N 40°39' W 074°07'0 0.0
2017-Oct-10 18:30N 40°39' W 074°07'1 2.8
2017-Oct-10 18:00N 40°39' W 074°05'611.5
2017-Oct-10 17:30N 40°44' W 074°01'611.1
2017-Oct-10 17:00N 40°49' W 073°58'611.1
2017-Oct-10 16:29N 40°55' W 073°55'1 0.9
2017-Oct-10 15:05N 40°56' W 073°54'0 0.0
2017-Oct-10 12:44N 40°56' W 073°54'0 0.0
2017-Oct-10 12:17N 40°56' W 073°54'0 0.0
2017-Oct-10 11:47N 40°56' W 073°54'0 0.0
2017-Oct-10 11:29N 40°56' W 073°54'0 0.0
2017-Oct-10 10:59N 40°56' W 073°54'0 0.0
2017-Oct-10 10:26N 40°56' W 073°54'0 0.0
2017-Oct-10 09:56N 40°56' W 073°54'0 0.0
2017-Oct-10 09:20N 40°56' W 073°54'0 0.0
2017-Oct-10 08:56N 40°56' W 073°54'0 0.0
2017-Oct-10 08:26N 40°56' W 073°54'0 0.0
2017-Oct-10 07:56N 40°56' W 073°54'0 0.0
2017-Oct-10 07:26N 40°56' W 073°54'0 0.0
2017-Oct-10 06:56N 40°56' W 073°54'0 0.0
2017-Oct-10 04:56N 40°56' W 073°54'0 0.0
2017-Oct-10 03:56N 40°56' W 073°54'0 0.0
2017-Oct-10 00:20N 40°56' W 073°54'0 0.0
2017-Oct-09 19:41N 40°56' W 073°54'0 0.0
2017-Oct-09 19:18N 40°56' W 073°54'0 0.0
2017-Oct-09 19:00N 40°56' W 073°54'0 0.0
2017-Oct-09 18:30N 40°56' W 073°54'1 1.3
2017-Oct-09 18:00N 40°56' W 073°55'0 0.0
2017-Oct-09 17:29N 40°56' W 073°55'0 0.0
2017-Oct-09 17:00N 40°56' W 073°55'0 0.0
2017-Oct-09 16:26N 40°56' W 073°55'0 0.0
2017-Oct-09 16:00N 40°56' W 073°55'0 0.0
2017-Oct-09 15:30N 40°56' W 073°55'0 0.0
2017-Oct-09 15:00N 40°56' W 073°55'0 0.0
2017-Oct-09 14:30N 40°56' W 073°55'0 0.0
2017-Oct-09 14:00N 40°56' W 073°55'0 0.0
2017-Oct-09 13:29N 40°56' W 073°55'0 0.3
2017-Oct-09 13:00N 40°56' W 073°55'0 0.1
2017-Oct-09 12:30N 40°56' W 073°55'0 0.0
2017-Oct-09 12:00N 40°56' W 073°55'0 0.0
2017-Oct-09 11:30N 40°56' W 073°55'0 0.0
2017-Oct-09 10:59N 40°56' W 073°55'0 0.0
2017-Oct-09 10:29N 40°56' W 073°55'0 0.0
2017-Oct-09 10:00N 40°56' W 073°55'0 0.0
2017-Oct-09 09:29N 40°56' W 073°55'0 0.0
2017-Oct-09 09:00N 40°56' W 073°55'0 0.0
2017-Oct-09 08:31N 40°56' W 073°55'0 0.0
2017-Oct-09 08:00N 40°56' W 073°55'0 0.0
2017-Oct-09 07:30N 40°56' W 073°55'0 0.2
2017-Oct-09 06:59N 40°56' W 073°55'0 0.1
2017-Oct-09 06:30N 40°56' W 073°55'0 0.0
2017-Oct-09 06:00N 40°56' W 073°55'0 0.0
2017-Oct-09 05:24N 40°56' W 073°55'0 0.0
2017-Oct-09 05:00N 40°56' W 073°55'0 0.0
2017-Oct-09 04:30N 40°56' W 073°55'0 0.0
2017-Oct-09 03:59N 40°56' W 073°55'0 0.0
2017-Oct-09 03:30N 40°56' W 073°55'0 0.0
2017-Oct-09 03:00N 40°56' W 073°55'0 0.0
2017-Oct-09 02:30N 40°56' W 073°55'0 0.0
2017-Oct-09 01:52N 40°56' W 073°55'0 0.2
2017-Oct-09 01:19N 40°56' W 073°55'0 0.1
2017-Oct-09 01:00N 40°56' W 073°55'0 0.1
2017-Oct-09 00:29N 40°56' W 073°55'0 0.0
2017-Oct-09 00:00N 40°56' W 073°55'0 0.0
2017-Oct-08 23:30N 40°56' W 073°55'0 0.0
2017-Oct-08 23:00N 40°56' W 073°55'0 0.0
2017-Oct-08 22:30N 40°56' W 073°55'0 0.0
2017-Oct-08 22:00N 40°56' W 073°55'0 0.0
2017-Oct-08 21:30N 40°56' W 073°55'0 0.0
2017-Oct-08 21:00N 40°56' W 073°55'0 0.0
2017-Oct-08 20:30N 40°56' W 073°55'0 0.0
2017-Oct-08 20:00N 40°56' W 073°55'0 0.0
2017-Oct-08 19:30N 40°56' W 073°55'0 0.0
2017-Oct-08 19:00N 40°56' W 073°55'0 0.3
2017-Oct-08 18:30N 40°56' W 073°55'0 0.0
2017-Oct-08 18:00N 40°56' W 073°55'0 0.0
2017-Oct-08 17:30N 40°56' W 073°55'0 0.0
2017-Oct-08 17:00N 40°56' W 073°55'0 0.0
2017-Oct-08 16:30N 40°56' W 073°55'0 0.0
2017-Oct-08 16:00N 40°56' W 073°55'0 0.0
2017-Oct-08 15:30N 40°56' W 073°55'0 0.0
2017-Oct-08 15:00N 40°56' W 073°55'0 0.0
2017-Oct-08 14:30N 40°56' W 073°55'0 0.0
2017-Oct-08 14:00N 40°56' W 073°55'0 0.0
2017-Oct-08 13:30N 40°56' W 073°55'0 0.0
2017-Oct-08 12:59N 40°56' W 073°55'0 0.0
2017-Oct-08 12:28N 40°56' W 073°55'0 0.2
2017-Oct-08 12:00N 40°56' W 073°55'0 0.1
2017-Oct-08 11:30N 40°56' W 073°55'0 0.1
2017-Oct-08 10:58N 40°56' W 073°55'0 0.0
2017-Oct-08 10:30N 40°56' W 073°55'0 0.0
2017-Oct-08 10:00N 40°56' W 073°55'0 0.0
2017-Oct-08 09:30N 40°56' W 073°55'0 0.0
2017-Oct-08 09:00N 40°56' W 073°55'0 0.0
2017-Oct-08 08:31N 40°56' W 073°55'0 0.0
2017-Oct-08 08:00N 40°56' W 073°55'0 0.0
2017-Oct-08 07:30N 40°56' W 073°55'0 0.1
2017-Oct-08 07:01N 40°56' W 073°55'0 0.2
2017-Oct-08 06:27N 40°56' W 073°55'0 0.1
2017-Oct-08 05:59N 40°56' W 073°55'0 0.0
2017-Oct-08 05:30N 40°56' W 073°55'0 0.0
2017-Oct-08 04:59N 40°56' W 073°55'0 0.0
2017-Oct-08 04:30N 40°56' W 073°55'0 0.0
2017-Oct-08 03:57N 40°56' W 073°55'0 0.0
2017-Oct-08 03:30N 40°56' W 073°55'0 0.0
2017-Oct-08 03:01N 40°56' W 073°55'0 0.0
2017-Oct-08 02:30N 40°56' W 073°55'0 0.0
2017-Oct-08 02:00N 40°56' W 073°55'0 0.0
2017-Oct-08 01:29N 40°56' W 073°55'0 0.0
2017-Oct-08 00:59N 40°56' W 073°55'0 0.0
2017-Oct-08 00:29N 40°56' W 073°55'0 0.3
2017-Oct-08 00:00N 40°56' W 073°55'0 0.1
2017-Oct-07 23:28N 40°56' W 073°55'0 0.0
2017-Oct-07 23:00N 40°56' W 073°55'0 0.0
2017-Oct-07 22:30N 40°56' W 073°55'0 0.0
2017-Oct-07 22:00N 40°56' W 073°55'0 0.0
2017-Oct-07 21:30N 40°56' W 073°55'0 0.0
2017-Oct-07 21:00N 40°56' W 073°55'0 0.0
2017-Oct-07 20:30N 40°56' W 073°55'0 0.0
2017-Oct-07 20:00N 40°56' W 073°55'0 0.0
2017-Oct-07 19:29N 40°56' W 073°55'0 0.0
2017-Oct-07 18:59N 40°56' W 073°55'0 0.0
2017-Oct-07 18:30N 40°56' W 073°55'0 0.1
2017-Oct-07 17:58N 40°56' W 073°55'0 0.3
2017-Oct-07 17:19N 40°56' W 073°55'0 0.1
2017-Oct-07 16:58N 40°56' W 073°55'0 0.0
2017-Oct-07 16:28N 40°56' W 073°55'0 0.7
2017-Oct-07 16:00N 40°56' W 073°54'0 0.6
2017-Oct-07 15:25N 40°56' W 073°55'0 0.0
2017-Oct-07 14:56N 40°56' W 073°55'0 0.0
2017-Oct-07 13:56N 40°56' W 073°55'0 0.0
2017-Oct-07 12:46N 40°56' W 073°55'0 0.1
2017-Oct-07 11:50N 40°56' W 073°55'0 0.4
2017-Oct-07 11:26N 40°56' W 073°55'0 0.1
2017-Oct-07 10:59N 40°56' W 073°55'0 0.0
2017-Oct-07 10:14N 40°56' W 073°55'0 0.0
2017-Oct-07 09:59N 40°56' W 073°55'0 0.0
2017-Oct-07 09:28N 40°56' W 073°55'0 0.0
2017-Oct-07 08:59N 40°56' W 073°55'0 0.0
2017-Oct-07 08:28N 40°56' W 073°55'0 0.0
2017-Oct-07 07:55N 40°56' W 073°55'0 0.0
2017-Oct-07 07:29N 40°56' W 073°55'0 0.0
2017-Oct-07 06:58N 40°56' W 073°55'0 0.0
2017-Oct-07 05:49N 40°56' W 073°55'0 0.3
2017-Oct-07 05:13N 40°56' W 073°55'0 0.1
2017-Oct-07 04:52N 40°56' W 073°55'0 0.1
2017-Oct-07 04:28N 40°56' W 073°55'0 0.0
2017-Oct-07 03:58N 40°56' W 073°55'0 0.0
2017-Oct-07 03:29N 40°56' W 073°55'0 0.0
2017-Oct-07 00:46N 40°56' W 073°55'0 0.1
2017-Oct-06 23:40N 40°56' W 073°55'0 0.4
2017-Oct-06 23:22N 40°56' W 073°55'0 0.0
2017-Oct-06 22:19N 40°56' W 073°55'0 0.0
2017-Oct-06 21:55N 40°56' W 073°55'0 0.0
2017-Oct-06 21:28N 40°56' W 073°55'0 0.0
2017-Oct-06 20:58N 40°56' W 073°55'0 0.0
2017-Oct-06 20:28N 40°56' W 073°55'0 0.0
2017-Oct-06 19:49N 40°56' W 073°55'0 0.0
2017-Oct-06 19:25N 40°56' W 073°55'0 0.0
2017-Oct-06 18:52N 40°56' W 073°55'0 0.0
2017-Oct-06 18:29N 40°56' W 073°55'0 0.2
2017-Oct-06 18:00N 40°56' W 073°55'0 0.2
2017-Oct-06 17:30N 40°56' W 073°55'1 1.0
2017-Oct-06 17:00N 40°56' W 073°54'0 0.3
2017-Oct-06 16:30N 40°56' W 073°55'1 0.9
2017-Oct-06 15:57N 40°56' W 073°55'0 0.1
2017-Oct-06 14:21N 40°56' W 073°55'1 3.9
2017-Oct-06 14:00N 40°55' W 073°55'510.3
2017-Oct-06 13:30N 40°50' W 073°58'510.1
2017-Oct-06 13:01N 40°46' W 074°01'510.3
2017-Oct-06 12:31N 40°41' W 074°02'5 9.6
2017-Oct-06 12:00N 40°36' W 074°02'5 9.4
2017-Oct-06 11:30N 40°31' W 074°00'5 9.5
2017-Oct-06 11:00N 40°29' W 073°55'3 6.9
2017-Oct-06 10:30N 40°25' W 073°54'1 2.0
2017-Oct-06 10:00N 40°24' W 073°55'2 5.0
2017-Oct-06 09:30N 40°22' W 073°55'3 6.4
2017-Oct-06 09:00N 40°19' W 073°55'3 6.3
2017-Oct-06 08:30N 40°16' W 073°55'12 6.1
2017-Oct-06 06:31N 40°04' W 073°58'1 6.0
2017-Oct-06 06:25N 40°03' W 073°58'3 6.0
2017-Oct-06 05:59N 40°01' W 073°58'3 5.9
2017-Oct-06 05:30N 39°58' W 073°57'3 5.8
2017-Oct-06 05:00N 39°55' W 073°58'3 5.9
2017-Oct-06 04:30N 39°52' W 073°58'3 5.9
2017-Oct-06 04:00N 39°49' W 073°58'3 5.9
2017-Oct-06 03:31N 39°46' W 073°58'3 5.8
2017-Oct-06 03:00N 39°43' W 073°60'3 5.8
2017-Oct-06 02:30N 39°41' W 074°01'3 6.0
2017-Oct-06 02:00N 39°38' W 074°02'3 5.9
2017-Oct-06 01:30N 39°35' W 074°04'3 6.0
2017-Oct-06 01:00N 39°32' W 074°05'3 6.1
2017-Oct-06 00:30N 39°30' W 074°07'3 6.2
2017-Oct-06 00:00N 39°27' W 074°10'3 6.3
2017-Oct-05 23:30N 39°24' W 074°12'3 6.3
2017-Oct-05 23:00N 39°22' W 074°14'3 6.2
2017-Oct-05 22:30N 39°20' W 074°17'4 6.2
2017-Oct-05 21:53N 39°17' W 074°21'2 6.1
2017-Oct-05 21:29N 39°15' W 074°23'4 6.2
2017-Oct-05 20:54N 39°12' W 074°26'3 6.1
2017-Oct-05 20:27N 39°10' W 074°28'3 6.0
2017-Oct-05 20:00N 39°08' W 074°30'3 6.0
2017-Oct-05 19:30N 39°06' W 074°33'3 6.0
2017-Oct-05 18:59N 39°04' W 074°35'3 6.0
2017-Oct-05 18:30N 39°02' W 074°38'3 6.1
2017-Oct-05 17:57N 38°59' W 074°41'3 6.2
2017-Oct-05 17:30N 38°57' W 074°43'3 6.2
2017-Oct-05 17:00N 38°54' W 074°45'9 5.9
2017-Oct-05 15:30N 38°46' W 074°45'3 6.0
2017-Oct-05 15:00N 38°43' W 074°43'3 5.9
2017-Oct-05 14:30N 38°40' W 074°42'3 6.1
2017-Oct-05 14:00N 38°38' W 074°40'3 6.0
2017-Oct-05 13:30N 38°35' W 074°38'3 5.5
2017-Oct-05 13:00N 38°33' W 074°36'3 5.3
2017-Oct-05 12:30N 38°30' W 074°36'3 5.4
2017-Oct-05 12:00N 38°28' W 074°38'3 6.2
2017-Oct-05 11:30N 38°25' W 074°40'3 6.3
2017-Oct-05 11:00N 38°22' W 074°42'3 6.6
2017-Oct-05 10:30N 38°19' W 074°44'3 6.8
2017-Oct-05 10:00N 38°16' W 074°46'3 6.8
2017-Oct-05 09:30N 38°14' W 074°48'3 6.6
2017-Oct-05 09:00N 38°11' W 074°50'3 6.5
2017-Oct-05 08:30N 38°08' W 074°52'3 6.4
2017-Oct-05 08:00N 38°05' W 074°54'3 6.5
2017-Oct-05 07:30N 38°02' W 074°56'3 6.2
2017-Oct-05 07:00N 37°59' W 074°58'3 6.3
2017-Oct-05 06:30N 37°57' W 074°59'3 6.0
2017-Oct-05 06:00N 37°54' W 075°01'3 6.0
2017-Oct-05 05:30N 37°51' W 075°03'3 6.0
2017-Oct-05 05:00N 37°48' W 075°04'3 5.9
2017-Oct-05 04:29N 37°46' W 075°06'3 5.8
2017-Oct-05 03:58N 37°43' W 075°08'3 6.1
2017-Oct-05 03:29N 37°40' W 075°10'3 6.3
2017-Oct-05 03:00N 37°38' W 075°11'3 6.2
2017-Oct-05 02:30N 37°35' W 075°13'4 7.3
2017-Oct-05 02:00N 37°32' W 075°15'4 7.1
2017-Oct-05 01:30N 37°28' W 075°17'4 7.0
2017-Oct-05 01:00N 37°25' W 075°17'4 7.0
2017-Oct-05 00:30N 37°21' W 075°18'3 7.1
2017-Oct-05 00:00N 37°18' W 075°18'4 7.3
2017-Oct-04 23:30N 37°14' W 075°19'4 7.5
2017-Oct-04 22:59N 37°10' W 075°18'3 7.3
2017-Oct-04 22:30N 37°07' W 075°18'4 7.0
2017-Oct-04 22:00N 37°03' W 075°18'  

Dump ship's entire track history